createdAt,value
2018-06-30T00:01:31.856Z,100.00
2018-06-30T00:03:58.798Z,100.00
2018-06-30T00:06:26.624Z,100.00
2018-06-30T00:08:54.404Z,100.00
2018-06-30T00:11:21.320Z,100.00
2018-06-30T00:13:48.335Z,100.00
2018-06-30T00:16:15.284Z,99.82
2018-06-30T00:18:42.231Z,100.00
2018-06-30T00:21:09.930Z,100.00
2018-06-30T00:23:37.307Z,100.00
2018-06-30T00:26:04.472Z,100.00
2018-06-30T00:28:31.425Z,100.00
2018-06-30T00:30:58.340Z,99.77
2018-06-30T00:33:25.581Z,100.00
2018-06-30T00:35:52.521Z,100.00
2018-06-30T00:38:19.584Z,100.00
2018-06-30T00:40:46.462Z,100.00
2018-06-30T00:43:13.433Z,100.00
2018-06-30T00:45:40.375Z,100.00
2018-06-30T00:48:07.310Z,100.00
2018-06-30T00:50:34.226Z,100.00
2018-06-30T00:53:01.797Z,100.00
2018-06-30T00:55:29.040Z,100.00
2018-06-30T00:57:56.552Z,100.00
2018-06-30T01:00:24.287Z,100.00
2018-06-30T01:02:51.267Z,100.00
2018-06-30T01:05:18.247Z,100.00
2018-06-30T01:07:45.188Z,100.00
2018-06-30T01:10:12.109Z,100.00
2018-06-30T01:12:39.099Z,100.00
2018-06-30T01:15:06.076Z,100.00
2018-06-30T01:17:33.753Z,100.00
2018-06-30T01:20:00.679Z,100.00
2018-06-30T01:22:27.949Z,100.00
2018-06-30T01:24:55.347Z,100.00
2018-06-30T01:27:22.279Z,100.00
2018-06-30T01:29:49.407Z,100.00
2018-06-30T01:32:16.421Z,100.00
2018-06-30T01:34:43.340Z,100.00
2018-06-30T01:37:10.325Z,100.00
2018-06-30T01:39:37.259Z,100.00
2018-06-30T01:42:04.172Z,100.00
2018-06-30T01:44:31.100Z,100.00
2018-06-30T01:46:58.050Z,100.00
2018-06-30T01:49:25.038Z,100.00
2018-06-30T01:51:51.991Z,100.00
2018-06-30T01:54:18.928Z,100.00
2018-06-30T01:56:45.860Z,100.00
2018-06-30T01:59:12.787Z,100.00
2018-06-30T02:01:39.716Z,100.00
2018-06-30T02:04:06.664Z,100.00
2018-06-30T02:06:33.693Z,100.00
2018-06-30T02:09:00.611Z,100.00
2018-06-30T02:11:27.600Z,100.00
2018-06-30T02:13:54.547Z,100.00
2018-06-30T02:16:21.464Z,100.00
2018-06-30T02:18:48.399Z,100.00
2018-06-30T02:21:15.333Z,100.00
2018-06-30T02:23:42.252Z,100.00
2018-06-30T02:26:09.176Z,100.00
2018-06-30T02:28:36.147Z,100.00
2018-06-30T02:31:03.131Z,100.00
2018-06-30T02:33:30.053Z,100.00
2018-06-30T02:35:56.987Z,100.00
2018-06-30T02:38:23.916Z,100.00
2018-06-30T02:40:50.841Z,100.00
2018-06-30T02:43:17.760Z,100.00
2018-06-30T02:45:44.705Z,100.00
2018-06-30T02:48:11.629Z,100.00
2018-06-30T02:50:38.567Z,100.00
2018-06-30T02:53:05.500Z,100.00
2018-06-30T02:55:32.428Z,100.00
2018-06-30T02:57:59.356Z,100.00
2018-06-30T03:00:26.310Z,100.00
2018-06-30T03:02:53.233Z,100.00
2018-06-30T03:05:20.177Z,100.00
2018-06-30T03:07:47.105Z,100.00
2018-06-30T03:10:14.074Z,100.00
2018-06-30T03:12:41.059Z,100.00
2018-06-30T03:15:08.016Z,100.00
2018-06-30T03:17:34.946Z,100.00
2018-06-30T03:20:01.885Z,100.00
2018-06-30T03:22:28.816Z,100.00
2018-06-30T03:24:55.769Z,100.00
2018-06-30T03:27:22.693Z,100.00
2018-06-30T03:29:49.628Z,100.00
2018-06-30T03:32:16.557Z,100.00
2018-06-30T03:34:43.584Z,100.00
2018-06-30T03:37:11.324Z,100.00
2018-06-30T03:39:38.248Z,100.00
2018-06-30T03:42:05.281Z,100.00
2018-06-30T03:44:32.209Z,100.00
2018-06-30T03:46:59.117Z,100.00
2018-06-30T03:49:26.057Z,100.00
2018-06-30T03:51:53.165Z,100.00
2018-06-30T03:54:20.092Z,100.00
2018-06-30T03:56:47.024Z,100.00
2018-06-30T03:59:13.937Z,100.00
2018-06-30T04:01:40.886Z,100.00
2018-06-30T04:04:07.784Z,100.00
2018-06-30T04:06:34.724Z,100.00
2018-06-30T04:09:01.689Z,100.00
2018-06-30T04:11:28.631Z,100.00
2018-06-30T04:13:55.543Z,100.00
2018-06-30T04:16:22.477Z,100.00
2018-06-30T04:18:49.392Z,100.00
2018-06-30T04:21:16.333Z,100.00
2018-06-30T04:23:43.247Z,100.00
2018-06-30T04:26:10.209Z,100.00
2018-06-30T04:28:37.145Z,100.00
2018-06-30T04:31:04.233Z,100.00
2018-06-30T04:33:31.171Z,100.00
2018-06-30T04:35:58.121Z,100.00
2018-06-30T04:38:25.096Z,100.00
2018-06-30T04:40:52.040Z,100.00
2018-06-30T04:43:18.948Z,100.00
2018-06-30T04:45:45.900Z,100.00
2018-06-30T04:48:12.836Z,100.00
2018-06-30T04:50:39.764Z,100.00
2018-06-30T04:53:06.701Z,100.00
2018-06-30T04:55:33.644Z,100.00
2018-06-30T04:58:07.327Z,100.00
2018-06-30T05:00:34.250Z,100.00
2018-06-30T05:03:01.202Z,100.00
2018-06-30T05:05:28.124Z,100.00
2018-06-30T05:10:28.664Z,100.00
2018-06-30T05:12:55.592Z,100.00
2018-06-30T05:15:22.496Z,99.69
2018-06-30T05:17:49.398Z,99.09
2018-06-30T05:20:16.328Z,97.97
2018-06-30T05:22:43.253Z,95.10
2018-06-30T05:25:10.148Z,94.81
2018-06-30T05:27:37.093Z,94.89
2018-06-30T05:30:04.486Z,94.82
2018-06-30T05:32:31.454Z,93.63
2018-06-30T05:34:58.349Z,92.22
2018-06-30T05:37:25.287Z,92.21
2018-06-30T05:39:52.235Z,92.62
2018-06-30T05:42:19.165Z,93.08
2018-06-30T05:44:46.086Z,92.33
2018-06-30T05:47:13.050Z,91.00
2018-06-30T05:49:39.974Z,90.67
2018-06-30T05:52:06.916Z,88.86
2018-06-30T05:54:33.836Z,87.44
2018-06-30T05:57:00.795Z,88.34
2018-06-30T05:59:27.786Z,86.03
2018-06-30T06:01:54.797Z,84.93
2018-06-30T06:04:21.716Z,83.93
2018-06-30T06:06:48.676Z,80.53
2018-06-30T06:09:15.596Z,81.95
2018-06-30T06:11:42.556Z,79.05
2018-06-30T06:14:10.045Z,78.02
2018-06-30T06:16:37.024Z,78.58
2018-06-30T06:19:04.541Z,72.94
2018-06-30T06:21:31.502Z,73.47
2018-06-30T06:23:58.416Z,70.45
2018-06-30T06:26:25.432Z,66.25
2018-06-30T06:28:52.348Z,66.98
2018-06-30T06:31:19.313Z,64.64
2018-06-30T06:33:46.273Z,64.95
2018-06-30T06:36:13.216Z,61.68
2018-06-30T06:38:40.161Z,61.57
2018-06-30T06:41:07.089Z,61.58
2018-06-30T06:43:34.028Z,62.87
2018-06-30T06:46:00.973Z,60.49
2018-06-30T06:48:27.917Z,55.53
2018-06-30T06:50:54.835Z,56.31
2018-06-30T06:53:21.760Z,53.81
2018-06-30T06:55:48.699Z,54.38
2018-06-30T06:58:15.640Z,52.11
2018-06-30T07:00:42.604Z,52.68
2018-06-30T07:03:09.539Z,51.67
2018-06-30T07:05:36.468Z,51.99
2018-06-30T07:08:03.412Z,51.19
2018-06-30T07:10:30.353Z,51.36
2018-06-30T07:12:57.328Z,47.92
2018-06-30T07:15:24.243Z,48.16
2018-06-30T07:17:51.219Z,46.81
2018-06-30T07:20:18.172Z,47.44
2018-06-30T07:22:45.125Z,46.07
2018-06-30T07:25:12.053Z,46.98
2018-06-30T07:27:38.972Z,45.56
2018-06-30T07:30:05.962Z,43.01
2018-06-30T07:32:32.983Z,41.30
2018-06-30T07:34:59.881Z,42.29
2018-06-30T07:37:26.927Z,41.56
2018-06-30T07:39:53.806Z,42.20
2018-06-30T07:42:20.730Z,41.89
2018-06-30T07:44:47.685Z,41.05
2018-06-30T07:47:14.601Z,42.08
2018-06-30T07:49:41.518Z,40.88
2018-06-30T07:52:08.451Z,41.45
2018-06-30T07:54:35.348Z,42.91
2018-06-30T07:57:02.320Z,42.58
2018-06-30T07:59:29.234Z,41.20
2018-06-30T08:01:56.141Z,40.97
2018-06-30T08:04:23.081Z,40.88
2018-06-30T08:06:50.001Z,40.06
2018-06-30T08:09:16.920Z,43.71
2018-06-30T08:11:43.859Z,42.22
2018-06-30T08:14:10.789Z,39.83
2018-06-30T08:16:37.742Z,38.97
2018-06-30T08:19:04.956Z,37.86
2018-06-30T08:21:31.921Z,37.71
2018-06-30T08:23:58.940Z,38.82
2018-06-30T08:26:25.874Z,38.82
2018-06-30T08:28:52.804Z,38.84
2018-06-30T08:31:19.732Z,37.22
2018-06-30T08:33:46.680Z,38.25
2018-06-30T08:36:13.628Z,40.41
2018-06-30T08:38:40.531Z,39.17
2018-06-30T08:41:07.459Z,41.21
2018-06-30T08:43:34.385Z,41.99
2018-06-30T08:46:01.297Z,42.07
2018-06-30T08:48:28.316Z,41.65
2018-06-30T08:50:55.233Z,37.34
2018-06-30T08:53:22.220Z,39.29
2018-06-30T08:55:49.171Z,40.18
2018-06-30T08:58:16.124Z,41.22
2018-06-30T09:00:43.091Z,41.37
2018-06-30T09:03:09.980Z,45.09
2018-06-30T09:05:36.915Z,43.88
2018-06-30T09:08:03.913Z,42.62
2018-06-30T09:10:30.861Z,42.08
2018-06-30T09:12:57.833Z,39.75
2018-06-30T09:15:24.736Z,38.96
2018-06-30T09:17:51.655Z,41.28
2018-06-30T09:20:18.626Z,43.87
2018-06-30T09:22:45.520Z,43.38
2018-06-30T09:25:12.438Z,46.06
2018-06-30T09:27:39.365Z,46.67
2018-06-30T09:30:07.036Z,40.87
2018-06-30T09:32:33.968Z,40.39
2018-06-30T09:35:00.874Z,37.21
2018-06-30T09:37:27.800Z,39.23
2018-06-30T09:39:54.728Z,40.74
2018-06-30T09:42:21.666Z,42.49
2018-06-30T09:44:48.634Z,37.73
2018-06-30T09:47:15.523Z,40.82
2018-06-30T09:49:42.443Z,41.55
2018-06-30T09:52:09.377Z,41.49
2018-06-30T09:54:36.288Z,39.99
2018-06-30T09:57:03.253Z,39.52
2018-06-30T09:59:30.401Z,41.65
2018-06-30T10:01:57.333Z,43.71
2018-06-30T10:04:24.247Z,44.63
2018-06-30T10:06:51.188Z,44.51
2018-06-30T10:09:18.108Z,43.24
2018-06-30T10:11:45.021Z,43.68
2018-06-30T10:14:11.965Z,44.69
2018-06-30T10:16:38.937Z,44.55
2018-06-30T10:19:05.916Z,44.62
2018-06-30T10:21:32.796Z,44.52
2018-06-30T10:23:59.723Z,43.34
2018-06-30T10:26:26.684Z,43.93
2018-06-30T10:28:54.376Z,40.79
2018-06-30T10:31:21.353Z,39.27
2018-06-30T10:33:48.249Z,40.74
2018-06-30T10:36:15.167Z,39.89
2018-06-30T10:38:42.060Z,41.28
2018-06-30T10:41:08.985Z,41.17
2018-06-30T10:43:36.096Z,41.95
2018-06-30T10:46:03.046Z,42.35
2018-06-30T10:48:29.962Z,43.36
2018-06-30T10:50:56.905Z,42.89
2018-06-30T10:53:24.218Z,40.09
2018-06-30T10:55:51.153Z,39.90
2018-06-30T10:58:18.065Z,38.47
2018-06-30T11:00:44.994Z,38.75
2018-06-30T11:03:11.933Z,36.59
2018-06-30T11:05:38.849Z,37.89
2018-06-30T11:08:05.806Z,35.01
2018-06-30T11:10:32.772Z,35.75
2018-06-30T11:12:59.702Z,37.29
2018-06-30T11:15:26.654Z,37.44
2018-06-30T11:17:53.561Z,38.77
2018-06-30T11:20:20.510Z,38.31
2018-06-30T11:22:47.424Z,37.59
2018-06-30T11:25:14.357Z,35.79
2018-06-30T11:27:41.277Z,33.99
2018-06-30T11:30:08.473Z,34.23
2018-06-30T11:32:35.706Z,35.64
2018-06-30T11:35:02.660Z,33.73
2018-06-30T11:37:29.579Z,34.54
2018-06-30T11:39:56.529Z,33.36
2018-06-30T11:42:23.440Z,31.71
2018-06-30T11:44:50.357Z,32.43
2018-06-30T11:47:17.272Z,31.20
2018-06-30T11:49:44.240Z,31.14
2018-06-30T11:52:11.141Z,31.80
2018-06-30T11:54:38.064Z,34.61
2018-06-30T11:57:04.976Z,35.47
2018-06-30T11:59:31.875Z,35.58
2018-06-30T12:01:58.794Z,37.85
2018-06-30T12:04:25.765Z,38.45
2018-06-30T12:06:53.078Z,38.40
2018-06-30T12:09:20.068Z,38.10
2018-06-30T12:11:46.930Z,37.85
2018-06-30T12:14:13.896Z,37.99
2018-06-30T12:16:40.846Z,37.67
2018-06-30T12:19:07.773Z,37.02
2018-06-30T12:21:34.708Z,36.12
2018-06-30T12:24:01.637Z,34.56
2018-06-30T12:26:28.544Z,37.71
2018-06-30T12:28:55.465Z,38.04
2018-06-30T12:31:22.373Z,40.22
2018-06-30T12:33:49.296Z,40.04
2018-06-30T12:36:16.234Z,40.20
2018-06-30T12:38:43.194Z,40.06
2018-06-30T12:41:10.137Z,40.21
2018-06-30T12:43:37.060Z,39.02
2018-06-30T12:46:04.098Z,35.12
2018-06-30T12:48:31.041Z,32.74
2018-06-30T12:50:57.976Z,32.79
2018-06-30T12:53:24.919Z,32.53
2018-06-30T12:55:51.858Z,32.36
2018-06-30T12:58:18.843Z,31.49
2018-06-30T13:00:45.800Z,32.55
2018-06-30T13:03:12.724Z,33.40
2018-06-30T13:05:39.653Z,34.85
2018-06-30T13:08:06.585Z,34.66
2018-06-30T13:10:33.512Z,33.22
2018-06-30T13:13:00.444Z,34.15
2018-06-30T13:15:27.411Z,33.96
2018-06-30T13:17:54.341Z,34.16
2018-06-30T13:20:21.268Z,34.42
2018-06-30T13:22:48.188Z,34.38
2018-06-30T13:25:15.139Z,34.64
2018-06-30T13:27:42.076Z,33.43
2018-06-30T13:30:09.052Z,33.75
2018-06-30T13:32:36.014Z,32.93
2018-06-30T13:35:02.964Z,35.67
2018-06-30T13:37:29.913Z,34.05
2018-06-30T13:39:56.832Z,34.63
2018-06-30T13:42:23.785Z,33.31
2018-06-30T13:44:50.702Z,33.35
2018-06-30T13:47:17.630Z,34.63
2018-06-30T13:49:44.561Z,33.60
2018-06-30T13:52:11.479Z,34.72
2018-06-30T13:54:40.481Z,33.24
2018-06-30T13:57:09.125Z,36.54
2018-06-30T13:59:37.727Z,38.32
2018-06-30T14:02:07.144Z,37.81
2018-06-30T14:04:36.308Z,39.92
2018-06-30T14:07:05.583Z,39.43
2018-06-30T14:09:34.442Z,38.35
2018-06-30T14:12:03.433Z,37.06
2018-06-30T14:14:32.266Z,37.37
2018-06-30T14:17:01.117Z,38.49
2018-06-30T14:19:30.153Z,39.10
2018-06-30T14:22:00.905Z,38.98
2018-06-30T14:24:29.812Z,37.82
2018-06-30T14:26:59.200Z,37.06
2018-06-30T14:29:28.462Z,37.31
2018-06-30T14:31:58.094Z,36.29
2018-06-30T14:34:27.101Z,39.58
2018-06-30T14:36:54.026Z,41.17
2018-06-30T14:39:20.918Z,40.55
2018-06-30T14:41:47.840Z,37.57
2018-06-30T14:44:15.192Z,38.93
2018-06-30T14:46:42.132Z,36.98
2018-06-30T14:49:09.140Z,36.34
2018-06-30T14:51:36.142Z,37.63
2018-06-30T14:54:03.081Z,36.34
2018-06-30T14:56:30.061Z,35.86
2018-06-30T14:58:57.049Z,35.98
2018-06-30T15:01:24.180Z,35.90
2018-06-30T15:03:51.156Z,35.97
2018-06-30T15:06:18.147Z,36.01
2018-06-30T15:08:45.088Z,36.86
2018-06-30T15:11:12.008Z,36.53
2018-06-30T15:13:38.948Z,37.64
2018-06-30T15:16:05.900Z,36.90
2018-06-30T15:18:32.829Z,37.27
2018-06-30T15:20:59.731Z,37.79
2018-06-30T15:23:26.652Z,37.89
2018-06-30T15:25:53.552Z,37.47
2018-06-30T15:28:20.496Z,38.17
2018-06-30T15:30:47.395Z,37.39
2018-06-30T15:33:14.335Z,37.00
2018-06-30T15:35:41.256Z,36.17
2018-06-30T15:38:08.217Z,36.86
2018-06-30T15:40:35.145Z,37.03
2018-06-30T15:43:02.094Z,35.80
2018-06-30T15:45:29.037Z,36.06
2018-06-30T15:47:55.965Z,35.25
2018-06-30T15:50:22.880Z,35.81
2018-06-30T15:52:49.828Z,36.63
2018-06-30T15:55:16.743Z,36.41
2018-06-30T15:57:43.673Z,36.74
2018-06-30T16:00:10.603Z,36.70
2018-06-30T16:02:37.576Z,37.23
2018-06-30T16:05:04.534Z,37.49
2018-06-30T16:07:31.489Z,37.84
2018-06-30T16:09:58.430Z,37.09
2018-06-30T16:12:25.408Z,38.17
2018-06-30T16:14:52.328Z,37.00
2018-06-30T16:17:19.224Z,37.64
2018-06-30T16:19:46.131Z,37.76
2018-06-30T16:22:13.069Z,38.90
2018-06-30T16:24:40.031Z,37.98
2018-06-30T16:27:06.953Z,37.67
2018-06-30T16:29:34.078Z,38.06
2018-06-30T16:32:01.518Z,38.44
2018-06-30T16:34:28.478Z,37.81
2018-06-30T16:36:55.408Z,37.91
2018-06-30T16:39:22.312Z,38.61
2018-06-30T16:41:49.252Z,39.02
2018-06-30T16:44:16.192Z,39.26
2018-06-30T16:46:43.140Z,40.04
2018-06-30T16:49:10.105Z,39.65
2018-06-30T16:51:36.980Z,39.67
2018-06-30T16:54:04.168Z,40.24
2018-06-30T16:56:31.143Z,39.24
2018-06-30T16:58:59.019Z,39.83
2018-06-30T17:01:25.955Z,39.79
2018-06-30T17:03:52.921Z,39.56
2018-06-30T17:06:20.198Z,40.62
2018-06-30T17:08:47.036Z,40.36
2018-06-30T17:11:13.958Z,40.35
2018-06-30T17:13:40.912Z,40.01
2018-06-30T17:16:07.873Z,40.50
2018-06-30T17:18:35.178Z,40.43
2018-06-30T17:21:02.118Z,40.09
2018-06-30T17:23:29.049Z,40.07
2018-06-30T17:25:56.038Z,40.08
2018-06-30T17:28:23.144Z,40.83
2018-06-30T17:30:50.075Z,40.79
2018-06-30T17:33:17.007Z,41.14
2018-06-30T17:35:43.928Z,41.21
2018-06-30T17:38:10.841Z,41.81
2018-06-30T17:40:37.773Z,41.82
2018-06-30T17:43:05.113Z,41.04
2018-06-30T17:45:32.052Z,42.04
2018-06-30T17:47:59.011Z,41.48
2018-06-30T17:50:25.949Z,40.75
2018-06-30T17:52:52.883Z,41.50
2018-06-30T17:55:19.837Z,40.84
2018-06-30T17:57:46.772Z,41.93
2018-06-30T18:00:13.770Z,40.68
2018-06-30T18:02:40.705Z,41.51
2018-06-30T18:05:07.712Z,42.21
2018-06-30T18:07:34.633Z,41.96
2018-06-30T18:10:01.629Z,42.86
2018-06-30T18:12:28.517Z,42.72
2018-06-30T18:14:55.458Z,43.35
2018-06-30T18:17:22.381Z,44.10
2018-06-30T18:19:49.384Z,44.00
2018-06-30T18:22:16.352Z,44.40
2018-06-30T18:24:43.296Z,44.04
2018-06-30T18:27:10.256Z,44.57
2018-06-30T18:29:37.191Z,44.85
2018-06-30T18:32:04.157Z,44.75
2018-06-30T18:34:31.116Z,45.88
2018-06-30T18:36:58.062Z,46.15
2018-06-30T18:39:25.090Z,45.42
2018-06-30T18:41:51.937Z,46.75
2018-06-30T18:44:18.888Z,46.81
2018-06-30T18:46:45.937Z,46.91
2018-06-30T18:49:12.819Z,46.50
2018-06-30T18:51:39.743Z,47.13
2018-06-30T18:54:07.504Z,46.80
2018-06-30T18:56:34.452Z,47.42
2018-06-30T18:59:01.387Z,48.32
2018-06-30T19:01:28.349Z,48.82
2018-06-30T19:03:55.266Z,48.52
2018-06-30T19:06:22.201Z,49.60
2018-06-30T19:08:49.119Z,49.53
2018-06-30T19:11:16.047Z,50.06
2018-06-30T19:13:43.045Z,51.50
2018-06-30T19:16:09.976Z,51.68
2018-06-30T19:18:36.890Z,51.71
2018-06-30T19:21:03.819Z,51.75
2018-06-30T19:23:30.724Z,52.14
2018-06-30T19:25:57.662Z,52.57
2018-06-30T19:28:24.564Z,53.10
2018-06-30T19:30:51.508Z,54.05
2018-06-30T19:33:18.416Z,54.68
2018-06-30T19:35:45.403Z,56.08
2018-06-30T19:38:12.300Z,55.79
2018-06-30T19:40:39.203Z,56.36
2018-06-30T19:43:06.099Z,56.93
2018-06-30T19:45:33.052Z,56.46
2018-06-30T19:47:59.939Z,57.72
2018-06-30T19:50:26.832Z,57.92
2018-06-30T19:52:53.772Z,58.48
2018-06-30T19:55:20.677Z,60.61
2018-06-30T19:57:47.628Z,60.24
2018-06-30T20:00:14.560Z,61.36
2018-06-30T20:02:41.929Z,61.34
2018-06-30T20:05:08.829Z,61.04
2018-06-30T20:07:41.474Z,61.38
2018-06-30T20:10:08.376Z,61.58
2018-06-30T20:12:35.278Z,62.37
2018-06-30T20:15:02.212Z,62.32
2018-06-30T20:17:29.666Z,61.78
2018-06-30T20:19:56.560Z,62.05
2018-06-30T20:22:23.464Z,62.58
2018-06-30T20:24:50.384Z,63.01
2018-06-30T20:27:17.305Z,63.50
2018-06-30T20:29:44.212Z,64.16
2018-06-30T20:32:11.142Z,64.48
2018-06-30T20:34:38.057Z,64.49
2018-06-30T20:37:05.075Z,65.07
2018-06-30T20:39:37.936Z,65.19
2018-06-30T20:42:06.176Z,66.01
2018-06-30T20:44:33.966Z,66.52
2018-06-30T20:47:02.065Z,67.02
2018-06-30T20:49:29.700Z,66.92
2018-06-30T20:51:59.345Z,67.14
2018-06-30T20:54:27.570Z,67.89
2018-06-30T20:56:55.184Z,69.78
2018-06-30T20:59:22.736Z,70.14
2018-06-30T21:01:50.688Z,71.70
2018-06-30T21:04:18.191Z,72.09
2018-06-30T21:06:46.540Z,72.63
2018-06-30T21:09:15.633Z,72.32
2018-06-30T21:11:43.008Z,73.88
2018-06-30T21:14:09.939Z,74.49
2018-06-30T21:16:37.055Z,75.62
2018-06-30T21:19:04.214Z,76.16
2018-06-30T21:21:31.420Z,74.89
2018-06-30T21:23:58.380Z,75.73
2018-06-30T21:26:25.677Z,77.83
2018-06-30T21:28:52.792Z,78.60
2018-06-30T21:31:20.245Z,79.02
2018-06-30T21:33:47.332Z,79.83
2018-06-30T21:36:15.589Z,78.59
2018-06-30T21:38:42.605Z,79.68
2018-06-30T21:41:09.990Z,79.71
2018-06-30T21:43:37.406Z,80.15
2018-06-30T21:46:05.414Z,79.50
2018-06-30T21:48:32.841Z,80.66
2018-06-30T21:50:59.778Z,81.22
2018-06-30T21:53:27.173Z,82.36
2018-06-30T21:55:54.214Z,83.81
2018-06-30T21:58:22.596Z,84.54
2018-06-30T22:00:55.537Z,84.80
2018-06-30T22:03:24.000Z,85.28
2018-06-30T22:05:52.853Z,85.45
2018-06-30T22:08:20.027Z,86.23
2018-06-30T22:10:47.308Z,86.18
2018-06-30T22:13:14.494Z,86.76
2018-06-30T22:15:41.905Z,86.62
2018-06-30T22:18:09.267Z,86.60
2018-06-30T22:20:36.577Z,86.81
2018-06-30T22:23:04.274Z,86.56
2018-06-30T22:25:31.879Z,86.95
2018-06-30T22:27:59.123Z,86.92
2018-06-30T22:30:26.115Z,87.04
2018-06-30T22:32:53.086Z,87.00
2018-06-30T22:35:20.003Z,87.22
2018-06-30T22:37:47.088Z,88.27
2018-06-30T22:40:16.647Z,87.29
2018-06-30T22:42:44.161Z,86.07
2018-06-30T22:45:11.072Z,87.28
2018-06-30T22:47:37.980Z,88.22
2018-06-30T22:50:04.928Z,88.05
2018-06-30T22:52:31.864Z,87.58
2018-06-30T22:54:58.772Z,88.15
2018-06-30T22:57:25.688Z,88.12
2018-06-30T22:59:52.620Z,88.25
2018-06-30T23:02:19.645Z,89.48
2018-06-30T23:04:46.576Z,90.69
2018-06-30T23:07:13.577Z,90.21
2018-06-30T23:09:40.841Z,89.31
2018-06-30T23:12:07.933Z,88.68
2018-06-30T23:14:34.856Z,89.87
2018-06-30T23:17:01.784Z,89.75
2018-06-30T23:19:28.717Z,89.96
2018-06-30T23:21:55.720Z,92.29
2018-06-30T23:24:22.687Z,93.46
2018-06-30T23:26:49.612Z,92.31
2018-06-30T23:29:16.536Z,91.26
2018-06-30T23:31:43.448Z,92.55
2018-06-30T23:34:10.399Z,92.88
2018-06-30T23:36:37.328Z,92.20
2018-06-30T23:39:07.161Z,94.65
2018-06-30T23:41:34.070Z,94.55
2018-06-30T23:44:00.995Z,93.15
2018-06-30T23:46:27.905Z,91.07
2018-06-30T23:48:54.801Z,91.73
2018-06-30T23:51:21.704Z,92.46
2018-06-30T23:53:48.612Z,91.63
2018-06-30T23:56:15.535Z,92.46
2018-06-30T23:58:42.441Z,93.53
